Wilmington, North Carolina
Current Conditions -  °F | °C
As of 6:53 AM on Tuesday 27 Jan 2015 (Local Time) from KILM Reporting Station
Light Rain Light Rain  
Wind Chill: 30°   Ceiling: 1000
Heat Index: 38°   Visibility: 4mi
Dew Point: 36°   Wind: 13mph
Humidity: 93%   Direction: 310°NW
Pressure: 29.76"   Gusts: NA
Location:  34.24°N, 77.94°W
Report Text: KILM 271153Z 31011KT 4SM -RA BR OVC010 03/02 A2976 RMK AO2 RAB46 SLP075 P0000 60000 70003 T00330022 10078 20033 53024
Loading
Personal Weather Stations






























Interactive Weather Map New forecast layout! Learn more

10-Day Weather Forecast

Advertisements
Track Severe Weather on mobile